sensor_id;sensor_type;location;lat;lon;timestamp;pressure;altitude;pressure_sealevel;temperature;humidity
60609;BME280;48221;53.528;9.884;2023-02-20T00:01:47;101971.69;;;4.50;100.00
60609;BME280;48221;53.528;9.884;2023-02-20T00:04:13;101958.88;;;4.52;100.00
60609;BME280;48221;53.528;9.884;2023-02-20T00:06:38;101953.59;;;4.50;100.00
60609;BME280;48221;53.528;9.884;2023-02-20T00:09:03;101949.53;;;4.54;100.00
60609;BME280;48221;53.528;9.884;2023-02-20T00:11:29;101941.88;;;4.55;100.00
60609;BME280;48221;53.528;9.884;2023-02-20T00:13:54;101934.44;;;4.60;100.00
60609;BME280;48221;53.528;9.884;2023-02-20T00:16:19;101931.94;;;4.61;100.00
60609;BME280;48221;53.528;9.884;2023-02-20T00:18:45;101927.66;;;4.62;100.00
60609;BME280;48221;53.528;9.884;2023-02-20T00:21:10;101921.84;;;4.64;100.00
60609;BME280;48221;53.528;9.884;2023-02-20T00:23:35;101914.97;;;4.65;100.00
60609;BME280;48221;53.528;9.884;2023-02-20T00:26:01;101906.41;;;4.66;100.00
60609;BME280;48221;53.528;9.884;2023-02-20T00:28:26;101892.59;;;4.65;100.00
60609;BME280;48221;53.528;9.884;2023-02-20T00:30:51;101889.31;;;4.68;100.00
60609;BME280;48221;53.528;9.884;2023-02-20T00:33:17;101877.28;;;4.68;100.00
60609;BME280;48221;53.528;9.884;2023-02-20T00:35:42;101882.53;;;4.70;100.00
60609;BME280;48221;53.528;9.884;2023-02-20T00:38:07;101863.66;;;4.71;100.00
60609;BME280;48221;53.528;9.884;2023-02-20T00:40:33;101843.06;;;4.73;100.00
60609;BME280;48221;53.528;9.884;2023-02-20T00:42:58;101846.69;;;4.75;100.00
60609;BME280;48221;53.528;9.884;2023-02-20T00:45:23;101838.13;;;4.76;100.00
60609;BME280;48221;53.528;9.884;2023-02-20T00:47:48;101839.81;;;4.75;100.00
60609;BME280;48221;53.528;9.884;2023-02-20T00:50:15;101825.28;;;4.77;100.00
60609;BME280;48221;53.528;9.884;2023-02-20T00:52:41;101823.59;;;4.78;100.00
60609;BME280;48221;53.528;9.884;2023-02-20T00:55:06;101821.91;;;4.78;100.00
60609;BME280;48221;53.528;9.884;2023-02-20T00:57:31;101803.19;;;4.82;100.00
60609;BME280;48221;53.528;9.884;2023-02-20T00:59:57;101808.38;;;4.82;100.00
60609;BME280;48221;53.528;9.884;2023-02-20T01:02:22;101798.91;;;4.83;100.00
60609;BME280;48221;53.528;9.884;2023-02-20T01:04:48;101798.03;;;4.82;100.00
60609;BME280;48221;53.528;9.884;2023-02-20T01:07:13;101799.81;;;4.83;100.00
60609;BME280;48221;53.528;9.884;2023-02-20T01:09:39;101813.63;;;4.84;100.00
60609;BME280;48221;53.528;9.884;2023-02-20T01:12:04;101803.38;;;4.85;100.00
60609;BME280;48221;53.528;9.884;2023-02-20T01:14:30;101793.94;;;4.86;100.00
60609;BME280;48221;53.528;9.884;2023-02-20T01:16:55;101792.94;;;4.84;100.00
60609;BME280;48221;53.528;9.884;2023-02-20T01:19:22;101791.25;;;4.84;100.00
60609;BME280;48221;53.528;9.884;2023-02-20T01:21:47;101801.81;;;4.87;100.00
60609;BME280;48221;53.528;9.884;2023-02-20T01:24:14;101790.66;;;4.88;100.00
60609;BME280;48221;53.528;9.884;2023-02-20T01:26:42;101795.03;;;4.89;100.00
60609;BME280;48221;53.528;9.884;2023-02-20T01:29:08;101782.28;;;4.92;100.00
60609;BME280;48221;53.528;9.884;2023-02-20T01:31:33;101779.00;;;4.95;100.00
60609;BME280;48221;53.528;9.884;2023-02-20T01:33:59;101782.47;;;4.95;100.00
60609;BME280;48221;53.528;9.884;2023-02-20T01:36:24;101782.56;;;4.97;100.00
60609;BME280;48221;53.528;9.884;2023-02-20T01:38:51;101769.78;;;4.98;100.00
60609;BME280;48221;53.528;9.884;2023-02-20T01:41:16;101770.75;;;5.01;100.00
60609;BME280;48221;53.528;9.884;2023-02-20T01:43:43;101759.59;;;5.02;100.00
60609;BME280;48221;53.528;9.884;2023-02-20T01:49:01;101753.00;;;5.07;100.00
60609;BME280;48221;53.528;9.884;2023-02-20T01:51:32;101738.47;;;5.09;100.00
60609;BME280;48221;53.528;9.884;2023-02-20T01:53:59;101732.53;;;5.10;100.00
60609;BME280;48221;53.528;9.884;2023-02-20T01:56:25;101729.16;;;5.11;100.00
60609;BME280;48221;53.528;9.884;2023-02-20T01:58:51;101718.00;;;5.12;100.00
60609;BME280;48221;53.528;9.884;2023-02-20T02:01:16;101708.63;;;5.14;100.00
60609;BME280;48221;53.528;9.884;2023-02-20T02:03:44;101707.91;;;5.16;100.00
60609;BME280;48221;53.528;9.884;2023-02-20T02:06:13;101693.47;;;5.20;100.00
60609;BME280;48221;53.528;9.884;2023-02-20T02:08:41;101682.22;;;5.19;100.00
60609;BME280;48221;53.528;9.884;2023-02-20T02:11:10;101661.66;;;5.21;100.00
60609;BME280;48221;53.528;9.884;2023-02-20T02:13:37;101658.34;;;5.23;100.00
60609;BME280;48221;53.528;9.884;2023-02-20T02:27:02;101650.03;;;5.29;100.00
60609;BME280;48221;53.528;9.884;2023-02-20T02:35:37;101652.03;;;5.33;100.00
60609;BME280;48221;53.528;9.884;2023-02-20T02:38:24;101656.19;;;5.31;100.00
60609;BME280;48221;53.528;9.884;2023-02-20T02:41:02;101666.84;;;5.36;100.00
60609;BME280;48221;53.528;9.884;2023-02-20T02:44:07;101659.06;;;5.36;100.00
60609;BME280;48221;53.528;9.884;2023-02-20T02:46:28;101665.16;;;5.36;100.00
60609;BME280;48221;53.528;9.884;2023-02-20T02:49:20;101651.41;;;5.37;100.00
60609;BME280;48221;53.528;9.884;2023-02-20T02:51:48;101642.84;;;5.38;100.00
60609;BME280;48221;53.528;9.884;2023-02-20T02:54:20;101646.31;;;5.39;100.00
60609;BME280;48221;53.528;9.884;2023-02-20T02:56:51;101626.59;;;5.41;100.00
60609;BME280;48221;53.528;9.884;2023-02-20T02:59:24;101627.56;;;5.43;100.00
60609;BME280;48221;53.528;9.884;2023-02-20T03:01:59;101635.31;;;5.43;100.00
60609;BME280;48221;53.528;9.884;2023-02-20T03:04:27;101635.31;;;5.43;100.00
60609;BME280;48221;53.528;9.884;2023-02-20T03:07:02;101636.34;;;5.45;100.00
60609;BME280;48221;53.528;9.884;2023-02-20T03:09:36;101630.34;;;5.46;100.00
60609;BME280;48221;53.528;9.884;2023-02-20T03:12:03;101633.75;;;5.45;100.00
60609;BME280;48221;53.528;9.884;2023-02-20T03:14:36;101626.97;;;5.47;100.00
60609;BME280;48221;53.528;9.884;2023-02-20T03:17:28;101613.22;;;5.48;100.00
60609;BME280;48221;53.528;9.884;2023-02-20T03:19:57;101607.31;;;5.50;100.00
60609;BME280;48221;53.528;9.884;2023-02-20T03:22:27;101607.31;;;5.50;100.00
60609;BME280;48221;53.528;9.884;2023-02-20T03:25:11;101607.50;;;5.53;100.00
60609;BME280;48221;53.528;9.884;2023-02-20T03:27:51;101623.09;;;5.55;100.00
60609;BME280;48221;53.528;9.884;2023-02-20T03:30:38;101610.38;;;5.58;100.00
60609;BME280;48221;53.528;9.884;2023-02-20T03:33:18;101614.81;;;5.61;100.00
60609;BME280;48221;53.528;9.884;2023-02-20T03:36:06;101615.81;;;5.63;100.00
60609;BME280;48221;53.528;9.884;2023-02-20T03:38:59;101608.03;;;5.63;100.00
60609;BME280;48221;53.528;9.884;2023-02-20T03:41:46;101604.56;;;5.62;100.00
60609;BME280;48221;53.528;9.884;2023-02-20T03:44:31;101589.81;;;5.61;100.00
60609;BME280;48221;53.528;9.884;2023-02-20T03:46:59;101577.69;;;5.60;100.00
60609;BME280;48221;53.528;9.884;2023-02-20T03:49:30;101573.41;;;5.61;100.00
60609;BME280;48221;53.528;9.884;2023-02-20T03:51:56;101577.75;;;5.62;100.00
60609;BME280;48221;53.528;9.884;2023-02-20T03:54:23;101590.72;;;5.62;100.00
60609;BME280;48221;53.528;9.884;2023-02-20T03:56:53;101600.34;;;5.64;100.00
60609;BME280;48221;53.528;9.884;2023-02-20T03:59:36;101600.50;;;5.67;100.00
60609;BME280;48221;53.528;9.884;2023-02-20T04:02:07;101597.16;;;5.68;100.00
60609;BME280;48221;53.528;9.884;2023-02-20T04:04:43;101598.03;;;5.69;100.00
60609;BME280;48221;53.528;9.884;2023-02-20T04:07:11;101591.09;;;5.68;100.00
60609;BME280;48221;53.528;9.884;2023-02-20T04:09:42;101578.13;;;5.68;100.00
60609;BME280;48221;53.528;9.884;2023-02-20T04:12:16;101582.50;;;5.69;100.00
60609;BME280;48221;53.528;9.884;2023-02-20T04:14:44;101577.22;;;5.67;100.00
60609;BME280;48221;53.528;9.884;2023-02-20T04:17:14;101554.84;;;5.68;100.00
60609;BME280;48221;53.528;9.884;2023-02-20T04:19:40;101555.59;;;5.67;100.00
60609;BME280;48221;53.528;9.884;2023-02-20T04:22:09;101553.00;;;5.67;100.00
60609;BME280;48221;53.528;9.884;2023-02-20T04:24:42;101553.00;;;5.67;100.00
60609;BME280;48221;53.528;9.884;2023-02-20T04:27:09;101546.94;;;5.66;100.00
60609;BME280;48221;53.528;9.884;2023-02-20T04:29:35;101541.69;;;5.65;100.00
60609;BME280;48221;53.528;9.884;2023-02-20T04:32:01;101540.78;;;5.64;100.00
60609;BME280;48221;53.528;9.884;2023-02-20T04:34:26;101546.06;;;5.66;100.00
60609;BME280;48221;53.528;9.884;2023-02-20T04:37:03;101533.91;;;5.65;100.00
60609;BME280;48221;53.528;9.884;2023-02-20T04:39:28;101526.06;;;5.63;100.00
60609;BME280;48221;53.528;9.884;2023-02-20T04:41:54;101525.97;;;5.62;100.00
60609;BME280;48221;53.528;9.884;2023-02-20T04:44:19;101520.81;;;5.62;100.00
60609;BME280;48221;53.528;9.884;2023-02-20T04:47:09;101518.94;;;5.59;100.00
60609;BME280;48221;53.528;9.884;2023-02-20T04:49:36;101507.63;;;5.57;100.00
60609;BME280;48221;53.528;9.884;2023-02-20T04:52:01;101506.59;;;5.55;100.00
60609;BME280;48221;53.528;9.884;2023-02-20T04:54:26;101504.03;;;5.55;100.00
60609;BME280;48221;53.528;9.884;2023-02-20T04:56:52;101511.69;;;5.53;100.00
60609;BME280;48221;53.528;9.884;2023-02-20T04:59:17;101508.22;;;5.53;100.00
60609;BME280;48221;53.528;9.884;2023-02-20T05:01:43;101506.53;;;5.53;100.00
60609;BME280;48221;53.528;9.884;2023-02-20T05:04:13;101503.03;;;5.53;100.00
60609;BME280;48221;53.528;9.884;2023-02-20T05:06:40;101513.47;;;5.54;100.00
60609;BME280;48221;53.528;9.884;2023-02-20T05:09:06;101513.41;;;5.53;100.00
60609;BME280;48221;53.528;9.884;2023-02-20T05:11:33;101521.25;;;5.54;100.00
60609;BME280;48221;53.528;9.884;2023-02-20T05:13:58;101530.81;;;5.55;100.00
60609;BME280;48221;53.528;9.884;2023-02-20T05:16:23;101523.97;;;5.56;100.00
60609;BME280;48221;53.528;9.884;2023-02-20T05:18:49;101510.09;;;5.55;100.00
60609;BME280;48221;53.528;9.884;2023-02-20T05:21:14;101503.31;;;5.57;100.00
60609;BME280;48221;53.528;9.884;2023-02-20T05:23:58;101492.16;;;5.59;100.00
60609;BME280;48221;53.528;9.884;2023-02-20T05:26:23;101493.94;;;5.60;100.00
60609;BME280;48221;53.528;9.884;2023-02-20T05:28:48;101485.38;;;5.61;100.00
60609;BME280;48221;53.528;9.884;2023-02-20T05:31:14;101473.41;;;5.63;100.00
60609;BME280;48221;53.528;9.884;2023-02-20T05:33:39;101456.97;;;5.62;100.00
60609;BME280;48221;53.528;9.884;2023-02-20T05:36:05;101456.97;;;5.62;100.00
60609;BME280;48221;53.528;9.884;2023-02-20T05:38:30;101442.31;;;5.63;100.00
60609;BME280;48221;53.528;9.884;2023-02-20T05:40:55;101435.44;;;5.63;100.00
60609;BME280;48221;53.528;9.884;2023-02-20T05:43:21;101432.13;;;5.66;100.00
60609;BME280;48221;53.528;9.884;2023-02-20T05:45:46;101418.94;;;5.61;100.00
60609;BME280;48221;53.528;9.884;2023-02-20T05:48:11;101428.72;;;5.67;100.00
60609;BME280;48221;53.528;9.884;2023-02-20T05:50:37;101415.91;;;5.68;100.00
60609;BME280;48221;53.528;9.884;2023-02-20T05:53:02;101415.00;;;5.68;100.00
60609;BME280;48221;53.528;9.884;2023-02-20T05:55:28;101411.63;;;5.69;100.00
60609;BME280;48221;53.528;9.884;2023-02-20T05:57:55;101410.81;;;5.70;100.00
60609;BME280;48221;53.528;9.884;2023-02-20T06:00:20;101406.59;;;5.72;100.00
60609;BME280;48221;53.528;9.884;2023-02-20T06:02:46;101401.41;;;5.72;100.00
60609;BME280;48221;53.528;9.884;2023-02-20T06:05:11;101398.00;;;5.73;100.00
60609;BME280;48221;53.528;9.884;2023-02-20T06:07:36;101392.84;;;5.73;100.00
60609;BME280;48221;53.528;9.884;2023-02-20T06:10:02;101391.22;;;5.75;100.00
60609;BME280;48221;53.528;9.884;2023-02-20T06:12:28;101380.84;;;5.75;100.00
60609;BME280;48221;53.528;9.884;2023-02-20T06:14:53;101377.44;;;5.76;100.00
60609;BME280;48221;53.528;9.884;2023-02-20T06:17:18;101369.75;;;5.77;100.00
60609;BME280;48221;53.528;9.884;2023-02-20T06:19:45;101373.25;;;5.78;100.00
60609;BME280;48221;53.528;9.884;2023-02-20T06:22:10;101367.28;;;5.79;100.00
60609;BME280;48221;53.528;9.884;2023-02-20T06:24:35;101384.59;;;5.80;100.00
60609;BME280;48221;53.528;9.884;2023-02-20T06:27:00;101377.63;;;5.79;100.00
60609;BME280;48221;53.528;9.884;2023-02-20T06:29:26;101381.19;;;5.81;100.00
60609;BME280;48221;53.528;9.884;2023-02-20T06:31:51;101382.97;;;5.82;100.00
60609;BME280;48221;53.528;9.884;2023-02-20T06:34:17;101391.72;;;5.84;100.00
60609;BME280;48221;53.528;9.884;2023-02-20T06:36:42;101389.28;;;5.87;100.00
60609;BME280;48221;53.528;9.884;2023-02-20T06:39:10;101382.63;;;5.91;100.00
60609;BME280;48221;53.528;9.884;2023-02-20T06:41:36;101375.81;;;5.93;100.00
60609;BME280;48221;53.528;9.884;2023-02-20T06:44:01;101380.41;;;5.98;100.00
60609;BME280;48221;53.528;9.884;2023-02-20T06:46:26;101398.00;;;6.04;100.00
60609;BME280;48221;53.528;9.884;2023-02-20T06:48:54;101389.50;;;6.06;100.00
60609;BME280;48221;53.528;9.884;2023-02-20T06:51:38;101394.97;;;6.12;100.00
60609;BME280;48221;53.528;9.884;2023-02-20T06:54:05;101388.38;;;6.18;100.00
60609;BME280;48221;53.528;9.884;2023-02-20T06:56:32;101390.13;;;6.19;100.00
60609;BME280;48221;53.528;9.884;2023-02-20T06:58:59;101389.56;;;6.24;100.00
60609;BME280;48221;53.528;9.884;2023-02-20T07:01:28;101386.25;;;6.27;100.00
60609;BME280;48221;53.528;9.884;2023-02-20T07:03:56;101379.59;;;6.32;100.00
60609;BME280;48221;53.528;9.884;2023-02-20T07:06:22;101381.44;;;6.34;100.00
60609;BME280;48221;53.528;9.884;2023-02-20T07:08:49;101391.19;;;6.38;100.00
60609;BME280;48221;53.528;9.884;2023-02-20T07:11:17;101393.84;;;6.40;100.00
60609;BME280;48221;53.528;9.884;2023-02-20T07:13:43;101386.22;;;6.43;100.00
60609;BME280;48221;53.528;9.884;2023-02-20T07:16:08;101385.41;;;6.44;100.00
60609;BME280;48221;53.528;9.884;2023-02-20T07:18:33;101394.22;;;6.48;100.00
60609;BME280;48221;53.528;9.884;2023-02-20T07:20:59;101387.34;;;6.48;100.00
60609;BME280;48221;53.528;9.884;2023-02-20T07:23:24;101396.94;;;6.49;100.00
60609;BME280;48221;53.528;9.884;2023-02-20T07:25:50;101385.00;;;6.53;100.00
60609;BME280;48221;53.528;9.884;2023-02-20T07:28:16;101390.25;;;6.54;100.00
60609;BME280;48221;53.528;9.884;2023-02-20T07:30:43;101388.69;;;6.58;100.00
60609;BME280;48221;53.528;9.884;2023-02-20T07:33:08;101393.97;;;6.59;100.00
60609;BME280;48221;53.528;9.884;2023-02-20T07:35:34;101387.00;;;6.58;100.00
60609;BME280;48221;53.528;9.884;2023-02-20T07:37:59;101389.78;;;6.61;100.00
60609;BME280;48221;53.528;9.884;2023-02-20T07:40:24;101393.25;;;6.62;100.00
60609;BME280;48221;53.528;9.884;2023-02-20T07:42:50;101382.13;;;6.64;100.00
60609;BME280;48221;53.528;9.884;2023-02-20T07:45:15;101375.16;;;6.63;100.00
60609;BME280;48221;53.528;9.884;2023-02-20T07:47:40;101383.16;;;6.68;100.00
60609;BME280;48221;53.528;9.884;2023-02-20T07:50:05;101374.50;;;6.67;100.00
60609;BME280;48221;53.528;9.884;2023-02-20T07:52:31;101356.34;;;6.67;100.00
60609;BME280;48221;53.528;9.884;2023-02-20T07:54:56;101367.59;;;6.68;100.00
60609;BME280;48221;53.528;9.884;2023-02-20T07:57:21;101357.31;;;6.69;100.00
60609;BME280;48221;53.528;9.884;2023-02-20T07:59:47;101351.31;;;6.70;100.00
60609;BME280;48221;53.528;9.884;2023-02-20T08:02:12;101340.84;;;6.69;100.00
60609;BME280;48221;53.528;9.884;2023-02-20T08:04:37;101347.75;;;6.68;100.00
60609;BME280;48221;53.528;9.884;2023-02-20T08:07:03;101343.69;;;6.73;100.00
60609;BME280;48221;53.528;9.884;2023-02-20T08:09:30;101324.78;;;6.76;100.00
60609;BME280;48221;53.528;9.884;2023-02-20T08:11:56;101324.88;;;6.78;100.00
60609;BME280;48221;53.528;9.884;2023-02-20T08:14:21;101319.75;;;6.79;100.00
60609;BME280;48221;53.528;9.884;2023-02-20T08:16:46;101322.28;;;6.78;100.00
60609;BME280;48221;53.528;9.884;2023-02-20T08:19:11;101323.22;;;6.80;100.00
60609;BME280;48221;53.528;9.884;2023-02-20T08:21:37;101317.41;;;6.84;100.00
60609;BME280;48221;53.528;9.884;2023-02-20T08:24:02;101320.78;;;6.83;100.00
60609;BME280;48221;53.528;9.884;2023-02-20T08:26:27;101322.72;;;6.87;100.00
60609;BME280;48221;53.528;9.884;2023-02-20T08:28:53;101315.75;;;6.86;100.00
60609;BME280;48221;53.528;9.884;2023-02-20T08:31:19;101310.66;;;6.87;100.00
60609;BME280;48221;53.528;9.884;2023-02-20T08:33:45;101309.09;;;6.91;100.00
60609;BME280;48221;53.528;9.884;2023-02-20T08:36:10;101317.81;;;6.93;100.00
60609;BME280;48221;53.528;9.884;2023-02-20T08:38:37;101317.81;;;6.93;100.00
60609;BME280;48221;53.528;9.884;2023-02-20T08:41:04;101307.50;;;6.94;100.00
60609;BME280;48221;53.528;9.884;2023-02-20T08:43:32;101307.69;;;6.97;100.00
60609;BME280;48221;53.528;9.884;2023-02-20T08:45:57;101300.78;;;6.98;100.00
60609;BME280;48221;53.528;9.884;2023-02-20T08:48:23;101299.16;;;7.00;100.00
60609;BME280;48221;53.528;9.884;2023-02-20T08:50:48;101302.69;;;7.02;100.00
60609;BME280;48221;53.528;9.884;2023-02-20T08:53:14;101290.69;;;7.04;100.00
60609;BME280;48221;53.528;9.884;2023-02-20T08:55:39;101291.75;;;7.08;100.00
60609;BME280;48221;53.528;9.884;2023-02-20T08:58:05;101281.44;;;7.09;100.00
60609;BME280;48221;53.528;9.884;2023-02-20T09:00:30;101290.25;;;7.13;100.00
60609;BME280;48221;53.528;9.884;2023-02-20T09:02:55;101268.72;;;7.15;100.00
60609;BME280;48221;53.528;9.884;2023-02-20T09:05:21;101284.59;;;7.21;100.00
60609;BME280;48221;53.528;9.884;2023-02-20T09:07:46;101269.16;;;7.24;100.00
60609;BME280;48221;53.528;9.884;2023-02-20T09:10:12;101271.88;;;7.27;100.00
60609;BME280;48221;53.528;9.884;2023-02-20T09:12:37;101274.47;;;7.27;100.00
60609;BME280;48221;53.528;9.884;2023-02-20T09:15:07;101263.06;;;7.24;100.00
60609;BME280;48221;53.528;9.884;2023-02-20T09:17:32;101258.91;;;7.27;100.00
60609;BME280;48221;53.528;9.884;2023-02-20T09:19:57;101254.69;;;7.29;100.00
60609;BME280;48221;53.528;9.884;2023-02-20T09:22:23;101253.13;;;7.33;100.00
60609;BME280;48221;53.528;9.884;2023-02-20T09:24:49;101250.59;;;7.35;100.00
60609;BME280;48221;53.528;9.884;2023-02-20T09:27:15;101254.91;;;7.34;100.00
60609;BME280;48221;53.528;9.884;2023-02-20T09:29:40;101251.47;;;7.35;100.00
60609;BME280;48221;53.528;9.884;2023-02-20T09:32:07;101254.00;;;7.34;100.00
60609;BME280;48221;53.528;9.884;2023-02-20T09:34:32;101264.47;;;7.35;100.00
60609;BME280;48221;53.528;9.884;2023-02-20T09:36:58;101263.56;;;7.35;100.00
60609;BME280;48221;53.528;9.884;2023-02-20T09:39:23;101252.38;;;7.36;100.00
60609;BME280;48221;53.528;9.884;2023-02-20T09:42:06;101248.00;;;7.35;100.00
60609;BME280;48221;53.528;9.884;2023-02-20T09:44:58;101238.56;;;7.37;100.00
60609;BME280;48221;53.528;9.884;2023-02-20T09:50:42;101237.22;;;7.45;100.00
60609;BME280;48221;53.528;9.884;2023-02-20T09:55:42;101222.88;;;7.53;100.00
60609;BME280;48221;53.528;9.884;2023-02-20T09:58:19;101216.09;;;7.56;100.00
60609;BME280;48221;53.528;9.884;2023-02-20T10:00:45;101225.72;;;7.59;100.00
60609;BME280;48221;53.528;9.884;2023-02-20T10:03:31;101244.84;;;7.61;100.00
60609;BME280;48221;53.528;9.884;2023-02-20T10:06:02;101245.91;;;7.65;100.00
60609;BME280;48221;53.528;9.884;2023-02-20T10:08:33;101233.94;;;7.68;100.00
60609;BME280;48221;53.528;9.884;2023-02-20T10:11:01;101247.94;;;7.72;100.00
60609;BME280;48221;53.528;9.884;2023-02-20T10:13:41;101232.47;;;7.75;100.00
60609;BME280;48221;53.528;9.884;2023-02-20T10:16:31;101229.97;;;7.76;100.00
60609;BME280;48221;53.528;9.884;2023-02-20T10:19:21;101228.44;;;7.81;100.00
60609;BME280;48221;53.528;9.884;2023-02-20T10:22:13;101225.19;;;7.87;100.00
60609;BME280;48221;53.528;9.884;2023-02-20T10:29:56;101217.03;;;7.99;100.00
60609;BME280;48221;53.528;9.884;2023-02-20T10:32:58;101221.69;;;8.06;100.00
60609;BME280;48221;53.528;9.884;2023-02-20T10:38:17;101222.16;;;8.16;100.00
60609;BME280;48221;53.528;9.884;2023-02-20T10:40:52;101218.78;;;8.19;100.00
60609;BME280;48221;53.528;9.884;2023-02-20T10:43:36;101224.25;;;8.25;100.00
60609;BME280;48221;53.528;9.884;2023-02-20T10:46:28;101219.22;;;8.30;100.00
60609;BME280;48221;53.528;9.884;2023-02-20T10:48:57;101203.75;;;8.33;100.00
60609;BME280;48221;53.528;9.884;2023-02-20T10:53:59;101211.06;;;8.41;100.00
60609;BME280;48221;53.528;9.884;2023-02-20T10:56:35;101179.91;;;8.43;100.00
60609;BME280;48221;53.528;9.884;2023-02-20T10:59:18;101199.00;;;8.43;100.00
60609;BME280;48221;53.528;9.884;2023-02-20T11:01:51;101210.38;;;8.45;100.00
60609;BME280;48221;53.528;9.884;2023-02-20T11:04:28;101202.66;;;8.47;100.00
60609;BME280;48221;53.528;9.884;2023-02-20T11:06:59;101210.50;;;8.48;100.00
60609;BME280;48221;53.528;9.884;2023-02-20T11:09:26;101201.88;;;8.50;100.00
60609;BME280;48221;53.528;9.884;2023-02-20T11:11:52;101214.16;;;8.54;100.00
60609;BME280;48221;53.528;9.884;2023-02-20T11:14:23;101209.09;;;8.57;100.00
60609;BME280;48221;53.528;9.884;2023-02-20T11:16:55;101217.84;;;8.59;100.00
60609;BME280;48221;53.528;9.884;2023-02-20T11:19:38;101198.81;;;8.60;100.00
60609;BME280;48221;53.528;9.884;2023-02-20T11:22:04;101204.13;;;8.63;100.00
60609;BME280;48221;53.528;9.884;2023-02-20T11:24:35;101188.53;;;8.63;100.00
60609;BME280;48221;53.528;9.884;2023-02-20T11:29:46;101195.03;;;8.74;100.00
60609;BME280;48221;53.528;9.884;2023-02-20T11:37:28;101211.91;;;8.84;100.00
60609;BME280;48221;53.528;9.884;2023-02-20T11:39:56;101187.72;;;8.86;100.00
60609;BME280;48221;53.528;9.884;2023-02-20T11:42:23;101195.69;;;8.91;100.00
60609;BME280;48221;53.528;9.884;2023-02-20T11:45:14;101189.88;;;8.98;100.00
60609;BME280;48221;53.528;9.884;2023-02-20T11:47:41;101191.84;;;9.03;100.00
60609;BME280;48221;53.528;9.884;2023-02-20T11:50:15;101199.72;;;9.05;100.00
60609;BME280;48221;53.528;9.884;2023-02-20T11:53:00;101192.22;;;9.14;100.00
60609;BME280;48221;53.528;9.884;2023-02-20T11:55:28;101180.00;;;9.12;100.00
60609;BME280;48221;53.528;9.884;2023-02-20T11:57:54;101188.88;;;9.17;100.00
60609;BME280;48221;53.528;9.884;2023-02-20T12:03:11;101154.31;;;9.21;100.00
60609;BME280;48221;53.528;9.884;2023-02-20T12:05:40;101157.16;;;9.27;100.00
60609;BME280;48221;53.528;9.884;2023-02-20T12:11:02;101156.41;;;9.31;100.00
60609;BME280;48221;53.528;9.884;2023-02-20T12:13:30;101146.97;;;9.34;100.00
60609;BME280;48221;53.528;9.884;2023-02-20T12:24:28;101138.75;;;9.48;100.00
60609;BME280;48221;53.528;9.884;2023-02-20T12:26:59;101133.56;;;9.48;100.00
60609;BME280;48221;53.528;9.884;2023-02-20T12:32:16;101130.06;;;9.47;100.00
60609;BME280;48221;53.528;9.884;2023-02-20T12:40:20;101125.91;;;9.52;100.00
60609;BME280;48221;53.528;9.884;2023-02-20T12:43:09;101128.56;;;9.54;100.00
60609;BME280;48221;53.528;9.884;2023-02-20T12:54:05;101125.28;;;9.59;100.00
60609;BME280;48221;53.528;9.884;2023-02-20T12:56:48;101119.03;;;9.54;100.00
60609;BME280;48221;53.528;9.884;2023-02-20T12:59:27;101131.22;;;9.55;100.00
60609;BME280;48221;53.528;9.884;2023-02-20T13:02:00;101129.59;;;9.59;100.00
60609;BME280;48221;53.528;9.884;2023-02-20T13:04:39;101131.31;;;9.58;100.00
60609;BME280;48221;53.528;9.884;2023-02-20T13:07:16;101111.56;;;9.63;100.00
60609;BME280;48221;53.528;9.884;2023-02-20T13:10:12;101127.13;;;9.62;100.00
60609;BME280;48221;53.528;9.884;2023-02-20T13:12:39;101118.34;;;9.60;100.00
60609;BME280;48221;53.528;9.884;2023-02-20T13:20:48;101128.91;;;9.63;100.00
60609;BME280;48221;53.528;9.884;2023-02-20T13:28:27;101132.44;;;9.65;100.00
60609;BME280;48221;53.528;9.884;2023-02-20T13:33:42;101130.56;;;9.61;100.00
60609;BME280;48221;53.528;9.884;2023-02-20T13:44:40;101135.00;;;9.63;100.00
60609;BME280;48221;53.528;9.884;2023-02-20T13:54:53;101121.91;;;9.62;100.00
60609;BME280;48221;53.528;9.884;2023-02-20T13:57:19;101117.69;;;9.65;100.00
60609;BME280;48221;53.528;9.884;2023-02-20T13:59:48;101120.34;;;9.67;100.00
60609;BME280;48221;53.528;9.884;2023-02-20T14:02:17;101116.03;;;9.68;100.00
60609;BME280;48221;53.528;9.884;2023-02-20T14:04:53;101117.78;;;9.69;100.00
60609;BME280;48221;53.528;9.884;2023-02-20T14:07:36;101108.16;;;9.66;100.00
60609;BME280;48221;53.528;9.884;2023-02-20T14:10:13;101109.94;;;9.67;100.00
60609;BME280;48221;53.528;9.884;2023-02-20T14:12:39;101110.03;;;9.70;100.00
60609;BME280;48221;53.528;9.884;2023-02-20T14:15:05;101112.66;;;9.72;100.00
60609;BME280;48221;53.528;9.884;2023-02-20T14:17:31;101096.09;;;9.70;100.00
60609;BME280;48221;53.528;9.884;2023-02-20T14:19:59;101107.47;;;9.72;100.00
60609;BME280;48221;53.528;9.884;2023-02-20T14:22:29;101117.88;;;9.72;100.00
60609;BME280;48221;53.528;9.884;2023-02-20T14:25:19;101107.53;;;9.73;100.00
60609;BME280;48221;53.528;9.884;2023-02-20T14:27:46;101104.94;;;9.73;100.00
60609;BME280;48221;53.528;9.884;2023-02-20T14:30:21;101111.03;;;9.74;100.00
60609;BME280;48221;53.528;9.884;2023-02-20T14:32:51;101112.81;;;9.75;100.00
60609;BME280;48221;53.528;9.884;2023-02-20T14:35:41;101115.44;;;9.76;100.00
60609;BME280;48221;53.528;9.884;2023-02-20T14:38:30;101104.19;;;9.77;100.00
60609;BME280;48221;53.528;9.884;2023-02-20T14:40:59;101111.91;;;9.74;100.00
60609;BME280;48221;53.528;9.884;2023-02-20T14:43:25;101107.59;;;9.75;100.00
60609;BME280;48221;53.528;9.884;2023-02-20T14:46:02;101117.28;;;9.79;100.00
60609;BME280;48221;53.528;9.884;2023-02-20T14:48:31;101121.56;;;9.77;100.00